Connor, Texas
Current Conditions -  °F | °C
As of 4:53 AM on Monday 22 Dec 2014 (Local Time) from KUTS Reporting Station
Overcast Overcast  
Wind Chill: 58°   Ceiling: 600
Heat Index: 58°   Visibility: 7mi
Dew Point: 56°   Wind: 12mph
Humidity: 93%   Direction: 180°S
Pressure: 29.74"   Gusts: NA
Location:  30.9578°N, 95.8924°W
Report Text: KUTS 221053Z AUTO 18010KT 7SM OVC006 14/13 A2974 RMK AO2 SLP068 T01440133
Loading
Personal Weather Stations






























Interactive Weather Map New forecast layout! Learn more

10-Day Weather Forecast

Advertisements
Track Severe Weather on mobile